createdAt,value
2023-04-13T00:00:51.922Z,9.10
2023-04-13T00:05:55.863Z,11.10
2023-04-13T00:11:00.211Z,10.90
2023-04-13T00:16:03.393Z,10.70
2023-04-13T00:21:07.602Z,11.40
2023-04-13T00:26:10.664Z,9.70
2023-04-13T00:31:14.003Z,10.10
2023-04-13T00:36:17.978Z,9.00
2023-04-13T00:41:21.076Z,10.60
2023-04-13T00:46:24.808Z,9.50
2023-04-13T00:51:30.531Z,9.10
2023-04-13T00:56:34.573Z,9.60
2023-04-13T01:01:46.562Z,11.00
2023-04-13T01:07:18.825Z,10.10
2023-04-13T01:12:56.816Z,12.10
2023-04-13T01:18:07.605Z,10.90
2023-04-13T01:23:53.541Z,10.80
2023-04-13T01:28:58.324Z,9.90
2023-04-13T01:34:02.304Z,9.40
2023-04-13T01:39:06.011Z,9.50
2023-04-13T01:44:09.323Z,10.60
2023-04-13T01:49:19.681Z,13.80
2023-04-13T01:54:27.654Z,12.50
2023-04-13T01:59:31.138Z,16.90
2023-04-13T02:04:34.248Z,14.80
2023-04-13T02:09:37.347Z,14.00
2023-04-13T02:14:40.559Z,13.00
2023-04-13T02:19:44.296Z,12.90
2023-04-13T02:24:47.899Z,12.00
2023-04-13T02:29:52.640Z,8.90
2023-04-13T02:34:55.750Z,10.40
2023-04-13T02:39:58.857Z,11.90
2023-04-13T02:45:02.087Z,12.30
2023-04-13T02:50:06.972Z,11.50
2023-04-13T02:55:11.300Z,9.50
2023-04-13T03:00:16.262Z,10.20
2023-04-13T03:05:20.125Z,12.60
2023-04-13T03:10:23.323Z,13.00
2023-04-13T03:15:26.327Z,13.00
2023-04-13T03:20:29.562Z,11.80
2023-04-13T03:25:33.862Z,11.20
2023-04-13T03:30:37.808Z,10.60
2023-04-13T03:35:41.321Z,11.80
2023-04-13T03:40:44.937Z,13.00
2023-04-13T03:45:48.044Z,13.00
2023-04-13T03:50:51.149Z,11.80
2023-04-13T03:55:54.568Z,11.60
2023-04-13T04:00:57.981Z,10.60
2023-04-13T04:06:01.308Z,12.70
2023-04-13T04:11:05.201Z,20.70
2023-04-13T04:16:09.730Z,26.60
2023-04-13T04:21:15.751Z,31.10
2023-04-13T04:26:25.914Z,23.20
2023-04-13T04:31:37.394Z,16.30
2023-04-13T04:36:42.241Z,21.10
2023-04-13T04:41:45.362Z,50.00
2023-04-13T04:46:49.426Z,20.50
2023-04-13T04:51:53.127Z,21.10
2023-04-13T04:56:58.319Z,21.80
2023-04-13T05:02:01.377Z,20.80
2023-04-13T05:07:04.581Z,22.20
2023-04-13T05:12:07.785Z,24.10
2023-04-13T05:17:10.993Z,22.50
2023-04-13T05:22:16.042Z,24.70
2023-04-13T05:27:19.045Z,27.20
2023-04-13T05:32:22.159Z,23.60
2023-04-13T05:37:25.264Z,16.20
2023-04-13T05:42:28.400Z,12.80
2023-04-13T05:47:31.924Z,19.80
2023-04-13T05:52:35.407Z,20.10
2023-04-13T05:57:38.501Z,19.30
2023-04-13T06:02:42.236Z,17.90
2023-04-13T06:07:46.790Z,19.60
2023-04-13T06:12:50.888Z,17.00
2023-04-13T06:17:54.283Z,18.00
2023-04-13T06:22:57.613Z,17.00
2023-04-13T06:28:02.723Z,18.70
2023-04-13T06:33:06.430Z,16.10
2023-04-13T06:38:10.419Z,19.30
2023-04-13T06:43:26.428Z,17.20
2023-04-13T06:48:33.250Z,17.90
2023-04-13T06:53:36.318Z,19.50
2023-04-13T06:58:39.427Z,17.60
2023-04-13T07:03:43.739Z,17.00
2023-04-13T07:08:47.304Z,13.80
2023-04-13T07:13:50.390Z,16.20
2023-04-13T07:18:53.511Z,15.60
2023-04-13T07:23:56.632Z,13.40
2023-04-13T07:28:59.995Z,14.80
2023-04-13T07:34:03.337Z,15.30
2023-04-13T07:39:09.101Z,15.60
2023-04-13T07:44:12.714Z,15.30
2023-04-13T07:49:15.859Z,13.50
2023-04-13T07:54:19.024Z,13.40
2023-04-13T07:59:24.123Z,11.90
2023-04-13T08:04:28.468Z,12.70
2023-04-13T08:09:36.760Z,12.10
2023-04-13T08:14:39.949Z,9.80
2023-04-13T08:19:43.062Z,13.80
2023-04-13T08:24:46.099Z,13.10
2023-04-13T08:29:56.330Z,11.90
2023-04-13T08:34:59.855Z,10.30
2023-04-13T08:40:07.604Z,12.30
2023-04-13T08:45:13.200Z,11.00
2023-04-13T08:50:17.599Z,11.00
2023-04-13T08:55:20.810Z,11.00
2023-04-13T09:00:25.721Z,10.70
2023-04-13T09:05:30.943Z,11.20
2023-04-13T09:10:35.421Z,9.60
2023-04-13T09:15:39.348Z,10.80
2023-04-13T09:20:42.654Z,9.90
2023-04-13T09:25:46.993Z,9.10
2023-04-13T09:30:50.228Z,9.10
2023-04-13T09:35:53.412Z,10.20
2023-04-13T09:40:58.465Z,10.30
2023-04-13T09:46:01.816Z,9.10
2023-04-13T09:51:08.747Z,9.30
2023-04-13T09:56:12.501Z,9.40
2023-04-13T10:01:15.780Z,8.60
2023-04-13T10:06:20.656Z,9.10
2023-04-13T10:11:24.779Z,8.40
2023-04-13T10:16:54.130Z,9.70
2023-04-13T10:21:58.918Z,8.60
2023-04-13T10:27:14.394Z,9.50
2023-04-13T10:32:26.990Z,8.60
2023-04-13T10:37:30.284Z,8.70
2023-04-13T10:47:58.787Z,8.60
2023-04-13T10:53:07.924Z,8.00
2023-04-13T10:58:18.489Z,7.80
2023-04-13T11:03:22.473Z,7.50
2023-04-13T11:08:28.298Z,7.20
2023-04-13T11:13:32.970Z,8.30
2023-04-13T11:18:36.401Z,7.70
2023-04-13T11:23:39.544Z,7.50
2023-04-13T11:28:46.413Z,7.90
2023-04-13T11:33:49.754Z,7.80
2023-04-13T11:38:54.569Z,7.20
2023-04-13T11:43:58.076Z,7.20
2023-04-13T11:49:01.938Z,7.20
2023-04-13T11:54:07.015Z,6.90
2023-04-13T11:59:10.084Z,7.40
2023-04-13T12:04:16.371Z,7.90
2023-04-13T12:09:20.853Z,7.40
2023-04-13T12:19:43.184Z,8.20
2023-04-13T12:24:48.153Z,7.00
2023-04-13T12:29:51.850Z,6.30
2023-04-13T12:34:54.946Z,5.90
2023-04-13T12:39:58.479Z,5.90
2023-04-13T12:45:01.566Z,7.00
2023-04-13T12:50:10.594Z,7.60
2023-04-13T12:55:13.754Z,7.50
2023-04-13T13:00:18.254Z,7.40
2023-04-13T13:05:21.586Z,6.40
2023-04-13T13:10:29.499Z,5.80
2023-04-13T13:15:34.272Z,7.40
2023-04-13T13:20:41.566Z,7.80
2023-04-13T13:25:54.286Z,7.20
2023-04-13T13:31:09.084Z,6.90
2023-04-13T13:36:14.665Z,11.20
2023-04-13T13:41:18.537Z,9.60
2023-04-13T13:46:21.715Z,7.40
2023-04-13T13:51:24.952Z,6.50
2023-04-13T13:56:27.976Z,7.10
2023-04-13T14:01:31.707Z,7.30
2023-04-13T14:06:34.886Z,7.30
2023-04-13T14:11:38.224Z,6.80
2023-04-13T14:16:41.613Z,6.10
2023-04-13T14:21:44.735Z,7.60
2023-04-13T14:26:47.840Z,8.50
2023-04-13T14:31:50.853Z,9.00
2023-04-13T14:36:54.523Z,7.30
2023-04-13T14:41:57.698Z,12.60
2023-04-13T14:47:01.781Z,6.70
2023-04-13T14:52:05.095Z,8.90
2023-04-13T14:57:10.066Z,8.10
2023-04-13T15:02:13.365Z,7.40
2023-04-13T15:07:16.789Z,7.70
2023-04-13T15:12:19.982Z,6.60
2023-04-13T15:17:23.191Z,12.90
2023-04-13T15:22:26.641Z,13.50
2023-04-13T15:27:29.979Z,12.00
2023-04-13T15:32:36.435Z,8.60
2023-04-13T15:37:39.932Z,14.70
2023-04-13T15:42:43.128Z,23.30
2023-04-13T15:47:46.727Z,11.50
2023-04-13T15:52:50.108Z,7.70
2023-04-13T15:57:54.113Z,8.20
2023-04-13T16:02:57.608Z,12.00
2023-04-13T16:08:01.228Z,12.40
2023-04-13T16:13:06.708Z,10.70
2023-04-13T16:18:09.787Z,22.30
2023-04-13T16:23:14.543Z,8.40
2023-04-13T16:28:17.842Z,6.20
2023-04-13T16:33:21.055Z,6.50
2023-04-13T16:38:24.157Z,6.70
2023-04-13T16:43:27.276Z,6.20
2023-04-13T16:48:30.979Z,5.90
2023-04-13T16:53:33.988Z,6.20
2023-04-13T16:58:38.112Z,5.60
2023-04-13T17:03:41.293Z,51.00
2023-04-13T17:08:44.534Z,9.70
2023-04-13T17:13:47.635Z,11.80
2023-04-13T17:18:50.780Z,6.60
2023-04-13T17:23:53.960Z,9.00
2023-04-13T17:28:57.309Z,13.30
2023-04-13T17:34:00.788Z,23.60
2023-04-13T17:39:06.755Z,18.60
2023-04-13T17:44:09.957Z,15.30
2023-04-13T17:49:13.398Z,10.80
2023-04-13T17:54:16.479Z,10.40
2023-04-13T17:59:19.587Z,9.30
2023-04-13T18:04:22.913Z,10.00
2023-04-13T18:09:28.312Z,10.50
2023-04-13T18:14:31.484Z,9.90
2023-04-13T18:19:34.987Z,13.70
2023-04-13T18:24:39.046Z,13.40
2023-04-13T18:29:42.223Z,9.70
2023-04-13T18:34:45.350Z,12.40
2023-04-13T18:39:48.540Z,8.70
2023-04-13T18:44:51.670Z,15.20
2023-04-13T18:49:55.364Z,13.00
2023-04-13T18:54:59.299Z,14.50
2023-04-13T19:00:02.426Z,13.10
2023-04-13T19:05:06.291Z,11.20
2023-04-13T19:10:11.268Z,9.00
2023-04-13T19:15:14.373Z,8.90
2023-04-13T19:20:18.284Z,10.00
2023-04-13T19:25:21.943Z,14.40
2023-04-13T19:30:25.247Z,10.40
2023-04-13T19:35:29.364Z,10.50
2023-04-13T19:40:32.464Z,11.50
2023-04-13T19:45:36.266Z,10.50
2023-04-13T19:50:39.292Z,7.40
2023-04-13T19:55:42.528Z,8.20
2023-04-13T20:00:47.441Z,8.00
2023-04-13T20:05:50.760Z,6.60
2023-04-13T20:10:54.071Z,7.20
2023-04-13T20:15:57.131Z,7.10
2023-04-13T20:21:00.800Z,6.70
2023-04-13T20:26:04.716Z,7.20
2023-04-13T20:31:08.615Z,7.00
2023-04-13T20:36:12.395Z,7.60
2023-04-13T20:41:15.385Z,7.40
2023-04-13T20:46:18.943Z,7.60
2023-04-13T20:51:23.632Z,8.40
2023-04-13T20:56:26.685Z,7.80
2023-04-13T21:01:30.663Z,7.30
2023-04-13T21:06:37.680Z,7.20
2023-04-13T21:11:42.772Z,6.70
2023-04-13T21:16:45.970Z,5.70
2023-04-13T21:21:49.250Z,5.20
2023-04-13T21:26:52.411Z,4.70
2023-04-13T21:31:55.607Z,4.10
2023-04-13T21:37:01.844Z,5.40
2023-04-13T21:42:05.540Z,5.00
2023-04-13T21:47:08.615Z,6.00
2023-04-13T21:52:11.668Z,4.40
2023-04-13T21:57:14.868Z,4.40
2023-04-13T22:02:17.959Z,3.90
2023-04-13T22:07:31.483Z,4.50
2023-04-13T22:12:42.427Z,4.90
2023-04-13T22:17:45.708Z,4.10
2023-04-13T22:22:48.945Z,4.40
2023-04-13T22:27:53.370Z,4.10
2023-04-13T22:32:57.358Z,3.90
2023-04-13T22:38:00.405Z,5.60
2023-04-13T22:43:03.412Z,4.70
2023-04-13T22:48:06.908Z,4.40
2023-04-13T22:53:10.075Z,4.30
2023-04-13T22:58:13.235Z,5.50
2023-04-13T23:03:16.745Z,5.10
2023-04-13T23:08:21.029Z,5.10
2023-04-13T23:13:24.101Z,5.40
2023-04-13T23:18:27.820Z,5.30
2023-04-13T23:23:30.845Z,5.00
2023-04-13T23:28:33.922Z,4.20
2023-04-13T23:33:37.468Z,4.80
2023-04-13T23:38:40.549Z,5.50
2023-04-13T23:43:43.668Z,5.00
2023-04-13T23:48:46.767Z,5.20
2023-04-13T23:53:49.873Z,5.10
2023-04-13T23:58:53.075Z,4.70
